Flight Track Log - Related Links

Times and Time Zones

All times are in EDT time to prevent confusion due to time zone crossing. See the CTL312 flight status page for this flight to view local times or setup timezone preferences in your user account.

Time Position Orientation Groundspeed Altitude Reporting Facility
EDT Latitude Longitude Course Direction KTS MPH feet Rate Location/Type
Tue 06:33:58 PM 41.5125 -81.6978 318° Northwest 112 129 800  Level Cleveland Center
Tue 06:34:35 PM 41.5292 -81.7175 318° Northwest 154 177 1,200 619 Climbing Cleveland Center
Tue 06:35:35 PM 41.5747 -81.7406 339° North 185 213 1,800 365 Climbing Cleveland Center
Tue 06:36:30 PM 41.5847 -81.7936 284° West 161 185 1,900 52 Climbing Cleveland Center
Tue 06:37:30 PM 41.5944 -81.8575 282° West 169 194 1,900 149 Level Cleveland Center
Tue 06:38:31 PM 41.6000 -81.9158 277° West 161 185 2,200 492 Climbing Cleveland Center
Tue 06:39:32 PM 41.5847 -81.9656 248° West 144 166 2,900 678 Climbing Cleveland Center
Tue 06:40:26 PM 41.5717 -82.0125 250° West 144 166 3,500 550 Climbing Cleveland Center
Tue 06:41:21 PM 41.5503 -82.0481 231° Southwest 141 162 3,900 470 Climbing Cleveland Center
Tue 06:42:21 PM 41.5208 -82.0836 222° Southwest 142 163 4,400 496 Climbing Cleveland Center
Tue 06:43:22 PM 41.4911 -82.1189 222° Southwest 140 161 4,900 492 Climbing Cleveland Center
Tue 06:44:23 PM 41.4636 -82.1514 222° Southwest 136 157 5,400 472 Climbing Cleveland Center
Tue 06:45:29 PM 41.4297 -82.1894 220° Southwest 136 157 5,900 298 Climbing Cleveland Center
Tue 06:46:24 PM 41.4019 -82.2247 224° Southwest 142 163 6,000  Climbing Cleveland Center
Tue 06:48:00 PM 41.3525 -82.2757 218° Southwest  Level FlightAware Approximate
Tue 06:55:00 PM 41.1365 -82.4991 221° Southwest  Level FlightAware Approximate
Tue 06:56:00 PM 41.1071 -82.5333 221° Southwest  Level FlightAware Approximate
Tue 06:57:00 PM 41.0777 -82.5675 221° Southwest  Level FlightAware Approximate
Tue 06:58:00 PM 41.0483 -82.6017 221° Southwest  Level FlightAware Approximate
Tue 06:59:00 PM 41.0189 -82.6358 221° Southwest  Level FlightAware Approximate
Tue 07:00:00 PM 40.9894 -82.6699 221° Southwest  Level FlightAware Approximate
Tue 07:01:00 PM 40.9600 -82.7040 221° Southwest  Level FlightAware Approximate
Tue 07:02:00 PM 40.9306 -82.7380 221° Southwest  Level FlightAware Approximate
Tue 07:03:00 PM 40.9011 -82.7720 221° Southwest  Level FlightAware Approximate
Tue 07:04:00 PM 40.8717 -82.8060 221° Southwest  Level FlightAware Approximate
Tue 07:05:00 PM 40.8422 -82.8400 221° Southwest  Level FlightAware Approximate
Tue 07:06:00 PM 40.8127 -82.8739 221° Southwest  Level FlightAware Approximate
Tue 07:07:00 PM 40.7832 -82.9078 221° Southwest  Level FlightAware Approximate
Tue 07:07:33 PM 40.7622 -82.9819 221° Southwest 150 173 5,900  Level Indianapolis Center
Tue 07:08:00 PM 40.7537 -82.9417 221° Southwest  Level FlightAware Approximate
Tue 07:08:35 PM 40.7261 -83.0247 222° Southwest 149 171 5,900  Level Indianapolis Center
Tue 07:09:00 PM 40.7242 -82.9755 221° Southwest  Level FlightAware Approximate
Tue 07:09:36 PM 40.6944 -83.0600 220° Southwest 149 171 5,900  Level Indianapolis Center
Tue 07:10:00 PM 40.6947 -83.0093 221° Southwest  Level FlightAware Approximate
Tue 07:10:38 PM 40.6633 -83.0944 220° Southwest 146 168 5,900  Level Indianapolis Center
Tue 07:11:00 PM 40.6652 -83.0430 221° Southwest  Level FlightAware Approximate
Tue 07:11:40 PM 40.6311 -83.1300 220° Southwest 148 170 5,900  Level Indianapolis Center
Tue 07:12:00 PM 40.6356 -83.0768 221° Southwest  Level FlightAware Approximate
Tue 07:12:42 PM 40.5964 -83.1689 220° Southwest 150 173 5,900  Level Indianapolis Center
Tue 07:13:44 PM 40.5650 -83.2047 221° Southwest 149 171 5,900  Level Indianapolis Center
Tue 07:14:46 PM 40.5342 -83.2417 222° Southwest 149 171 5,900  Level Indianapolis Center
Tue 07:15:48 PM 40.5022 -83.2781 221° Southwest 150 173 5,900  Level Indianapolis Center
Tue 07:16:15 PM 40.4844 -83.3000 223° Southwest 151 174 5,900  Level Indianapolis Center
Tue 07:16:50 PM 40.4703 -83.3153 219° Southwest 151 174 5,900  Level Indianapolis Center
Tue 07:17:16 PM 40.4525 -83.3372 223° Southwest 151 174 5,900  Level Indianapolis Center
Tue 07:17:52 PM 40.4394 -83.3536 224° Southwest 151 174 5,900  Level Indianapolis Center
Tue 07:18:23 PM 40.4181 -83.3797 223° Southwest 151 174 5,900  Level Indianapolis Center
Tue 07:18:54 PM 40.4083 -83.3908 221° Southwest 149 171 5,900 98 Level Indianapolis Center
Tue 07:19:24 PM 40.3883 -83.4144 222° Southwest 149 171 6,000  Climbing Indianapolis Center
Tue 07:19:56 PM 40.3719 -83.4333 221° Southwest 150 173 5,900  Descending Indianapolis Center
Tue 07:20:19 PM 40.3586 -83.4489 222° Southwest 151 174 6,000  Climbing Indianapolis Center
Tue 07:20:57 PM 40.3400 -83.4700 221° Southwest 150 173 5,900  Descending Indianapolis Center
Tue 07:21:20 PM 40.3289 -83.4836 223° Southwest 149 171 6,000 97 Climbing Indianapolis Center
Tue 07:21:59 PM 40.3097 -83.5069 223° Southwest 149 171 6,000  Level Indianapolis Center
Tue 07:22:26 PM 40.2922 -83.5256 219° Southwest 149 171 6,000  Level Indianapolis Center
Tue 07:23:01 PM 40.2781 -83.5433 224° Southwest 150 173 6,000  Level Indianapolis Center
Tue 07:23:21 PM 40.2647 -83.5606 225° Southwest 148 170 6,000  Level Indianapolis Center
Tue 07:24:03 PM 40.2467 -83.5792 218° Southwest 149 171 6,000  Level Indianapolis Center
Tue 07:24:22 PM 40.2328 -83.5947 221° Southwest 148 170 6,000  Level Indianapolis Center
Tue 07:25:05 PM 40.2156 -83.6139 220° Southwest 147 169 6,000  Level Indianapolis Center
Tue 07:25:23 PM 40.2011 -83.6292 219° Southwest 148 170 6,000  Level Indianapolis Center
Tue 07:26:07 PM 40.1844 -83.6497 223° Southwest 148 170 6,000  Level Indianapolis Center
Tue 07:26:24 PM 40.1714 -83.6636 219° Southwest 145 167 6,000  Level Indianapolis Center
Tue 07:27:08 PM 40.1475 -83.6892 219° Southwest 147 169 6,000  Level Indianapolis Center
Tue 07:28:10 PM 40.1164 -83.7247 221° Southwest 147 169 6,000  Level Indianapolis Center
Tue 07:29:12 PM 40.0836 -83.7578 218° Southwest 147 169 6,000  Level Indianapolis Center
Tue 07:30:14 PM 40.0519 -83.7928 220° Southwest 148 170 6,000  Level Indianapolis Center
Tue 07:31:16 PM 40.0208 -83.8278 221° Southwest 148 170 6,000 -49 Level Indianapolis Center
Tue 07:32:16 PM 39.9864 -83.8664 221° Southwest 145 167 5,900  Descending Indianapolis Center
Tue 07:33:17 PM 39.9547 -83.8978 217° Southwest 147 169 6,000 48 Climbing Indianapolis Center
Tue 07:34:21 PM 39.9253 -83.9294 220° Southwest 148 170 6,000  Level Indianapolis Center
Tue 07:35:23 PM 39.8894 -83.9694 221° Southwest 146 168 6,000 -50 Level Indianapolis Center
Tue 07:36:20 PM 39.8586 -84.0025 219° Southwest 147 169 5,900 -140 Descending Indianapolis Center
Tue 07:37:32 PM 39.8197 -84.0464 221° Southwest 151 174 5,700 -422 Descending Indianapolis Center
Tue 07:38:28 PM 39.7922 -84.0764 220° Southwest 153 176 5,000 -661 Descending Indianapolis Center
Tue 07:39:30 PM 39.7567 -84.1111 217° Southwest 157 181 4,400 -451 Descending Indianapolis Center
Tue 07:40:41 PM 39.7128 -84.1544 217° Southwest 160 184 4,000 -195 Descending Indianapolis Center
Tue 07:41:33 PM 39.6872 -84.1808 218° Southwest 157 181 4,000  Level Indianapolis Center
Tue 07:42:35 PM 39.6564 -84.2139 220° Southwest 150 173 4,000  Level Indianapolis Center
Tue 07:43:36 PM 39.6250 -84.2469 219° Southwest 145 167 4,000  Level Indianapolis Center
Tue 07:44:38 PM 39.5897 -84.2844 219° Southwest 142 163 4,000  Level Indianapolis Center
Tue 07:45:40 PM 39.5581 -84.3164 218° Southwest 142 163 4,000 -293 Level Indianapolis Center
Tue 07:46:41 PM 39.5261 -84.3508 220° Southwest 145 167 3,400 -537 Descending Indianapolis Center
Tue 07:47:43 PM 39.4925 -84.3872 220° Southwest 151 174 2,900 -339 Descending Indianapolis Center
Tue 07:48:45 PM 39.4600 -84.4217 219° Southwest 152 175 2,700 -194 Descending Indianapolis Center
Tue 07:51:00 PM 39.3778 -84.4749 229° Southwest  Level FlightAware Approximate
Tue 07:58:00 PM 39.3500 -84.5167 229° Southwest  Level FlightAware Approximate

Login

Don't have an account? Register now (free) for customized features, flight alerts, and more!